sensor_id;sensor_type;location;lat;lon;timestamp;pressure;altitude;pressure_sealevel;temperature;humidity
68656;BME280;55638;51.122;13.606;2023-04-01T00:00:31;98351.69;;;9.17;59.73
68656;BME280;55638;51.122;13.606;2023-04-01T00:02:03;98360.63;;;9.17;59.73
68656;BME280;55638;51.122;13.606;2023-04-01T00:03:35;98358.06;;;9.16;59.81
68656;BME280;55638;51.122;13.606;2023-04-01T00:05:07;98349.34;;;9.14;59.71
68656;BME280;55638;51.122;13.606;2023-04-01T00:06:39;98357.41;;;9.14;59.61
68656;BME280;55638;51.122;13.606;2023-04-01T00:08:11;98348.47;;;9.13;59.78
68656;BME280;55638;51.122;13.606;2023-04-01T00:09:43;98353.03;;;9.13;59.82
68656;BME280;55638;51.122;13.606;2023-04-01T00:11:15;98357.56;;;9.12;59.95
68656;BME280;55638;51.122;13.606;2023-04-01T00:12:51;98351.16;;;9.13;59.89
68656;BME280;55638;51.122;13.606;2023-04-01T00:14:22;98348.66;;;9.12;59.66
68656;BME280;55638;51.122;13.606;2023-04-01T00:15:55;98345.97;;;9.12;59.93
68656;BME280;55638;51.122;13.606;2023-04-01T00:17:29;98346.81;;;9.12;59.75
68656;BME280;55638;51.122;13.606;2023-04-01T00:19:02;98344.13;;;9.12;60.13
68656;BME280;55638;51.122;13.606;2023-04-01T00:20:34;98347.66;;;9.13;59.98
68656;BME280;55638;51.122;13.606;2023-04-01T00:22:06;98342.28;;;9.13;59.84
68656;BME280;55638;51.122;13.606;2023-04-01T00:23:38;98342.28;;;9.13;59.91
68656;BME280;55638;51.122;13.606;2023-04-01T00:25:10;98344.97;;;9.13;60.00
68656;BME280;55638;51.122;13.606;2023-04-01T00:26:42;98346.66;;;9.14;60.03
68656;BME280;55638;51.122;13.606;2023-04-01T00:28:18;98347.50;;;9.14;60.06
68656;BME280;55638;51.122;13.606;2023-04-01T00:29:50;98354.56;;;9.15;59.98
68656;BME280;55638;51.122;13.606;2023-04-01T00:31:22;98351.69;;;9.17;59.84
68656;BME280;55638;51.122;13.606;2023-04-01T00:32:54;98345.31;;;9.18;60.00
68656;BME280;55638;51.122;13.606;2023-04-01T00:34:26;98346.84;;;9.20;60.00
68656;BME280;55638;51.122;13.606;2023-04-01T00:37:40;98350.53;;;9.19;59.98
68656;BME280;55638;51.122;13.606;2023-04-01T00:39:12;98349.69;;;9.19;59.92
68656;BME280;55638;51.122;13.606;2023-04-01T00:40:45;98355.06;;;9.19;59.98
68656;BME280;55638;51.122;13.606;2023-04-01T00:42:18;98347.00;;;9.19;60.06
68656;BME280;55638;51.122;13.606;2023-04-01T00:43:50;98345.31;;;9.18;60.15
68656;BME280;55638;51.122;13.606;2023-04-01T00:45:33;98349.88;;;9.17;60.05
68656;BME280;55638;51.122;13.606;2023-04-01T00:47:05;98346.84;;;9.20;59.98
68656;BME280;55638;51.122;13.606;2023-04-01T00:48:39;98352.22;;;9.20;59.99
68656;BME280;55638;51.122;13.606;2023-04-01T00:50:13;98351.34;;;9.20;60.17
68656;BME280;55638;51.122;13.606;2023-04-01T00:51:46;98337.91;;;9.20;60.25
68656;BME280;55638;51.122;13.606;2023-04-01T00:53:20;98354.03;;;9.20;60.23
68656;BME280;55638;51.122;13.606;2023-04-01T00:54:56;98339.63;;;9.21;60.22
68656;BME280;55638;51.122;13.606;2023-04-01T00:56:34;98348.66;;;9.20;60.12
68656;BME280;55638;51.122;13.606;2023-04-01T00:58:09;98346.84;;;9.20;60.17
68656;BME280;55638;51.122;13.606;2023-04-01T00:59:45;98345.97;;;9.20;60.08
68656;BME280;55638;51.122;13.606;2023-04-01T01:01:21;98340.59;;;9.20;60.09
68656;BME280;55638;51.122;13.606;2023-04-01T01:02:54;98343.97;;;9.22;59.96
68656;BME280;55638;51.122;13.606;2023-04-01T01:04:31;98336.94;;;9.21;60.10
68656;BME280;55638;51.122;13.606;2023-04-01T01:06:09;98341.63;;;9.19;59.99
68656;BME280;55638;51.122;13.606;2023-04-01T01:07:48;98355.06;;;9.19;60.07
68656;BME280;55638;51.122;13.606;2023-04-01T01:11:15;98352.22;;;9.20;59.97
68656;BME280;55638;51.122;13.606;2023-04-01T01:15:02;98349.00;;;9.17;60.05
68656;BME280;55638;51.122;13.606;2023-04-01T01:16:43;98348.00;;;9.18;60.05
68656;BME280;55638;51.122;13.606;2023-04-01T01:20:35;98354.91;;;9.20;59.94
68656;BME280;55638;51.122;13.606;2023-04-01T01:27:38;98350.69;;;9.18;60.02
68656;BME280;55638;51.122;13.606;2023-04-01T01:31:20;98345.81;;;9.13;60.00
68656;BME280;55638;51.122;13.606;2023-04-01T01:33:18;98355.56;;;9.14;59.95
68656;BME280;55638;51.122;13.606;2023-04-01T01:35:14;98351.34;;;9.12;59.87
68656;BME280;55638;51.122;13.606;2023-04-01T01:36:52;98351.69;;;9.17;59.83
68656;BME280;55638;51.122;13.606;2023-04-01T01:38:31;98343.97;;;9.14;59.83
68656;BME280;55638;51.122;13.606;2023-04-01T01:40:09;98345.97;;;9.12;59.91
68656;BME280;55638;51.122;13.606;2023-04-01T01:41:44;98343.28;;;9.12;59.93
68656;BME280;55638;51.122;13.606;2023-04-01T01:43:24;98345.13;;;9.11;60.08
68656;BME280;55638;51.122;13.606;2023-04-01T01:44:58;98343.28;;;9.12;59.95
68656;BME280;55638;51.122;13.606;2023-04-01T01:46:31;98346.13;;;9.10;60.07
68656;BME280;55638;51.122;13.606;2023-04-01T01:48:04;98342.59;;;9.10;60.04
68656;BME280;55638;51.122;13.606;2023-04-01T01:49:38;98343.63;;;9.09;60.05
68656;BME280;55638;51.122;13.606;2023-04-01T01:51:11;98346.13;;;9.10;60.20
68656;BME280;55638;51.122;13.606;2023-04-01T01:52:43;98352.38;;;9.11;60.08
68656;BME280;55638;51.122;13.606;2023-04-01T01:54:16;98342.44;;;9.11;60.05
68656;BME280;55638;51.122;13.606;2023-04-01T01:55:49;98338.94;;;9.11;60.09
68656;BME280;55638;51.122;13.606;2023-04-01T01:57:26;98337.22;;;9.10;60.06
68656;BME280;55638;51.122;13.606;2023-04-01T01:59:03;98352.38;;;9.11;59.92
68656;BME280;55638;51.122;13.606;2023-04-01T02:00:38;98347.50;;;9.14;59.98
68656;BME280;55638;51.122;13.606;2023-04-01T02:02:12;98353.72;;;9.15;59.98
68656;BME280;55638;51.122;13.606;2023-04-01T02:03:45;98352.88;;;9.14;60.00
68656;BME280;55638;51.122;13.606;2023-04-01T02:05:23;98344.97;;;9.13;59.85
68656;BME280;55638;51.122;13.606;2023-04-01T02:07:02;98346.81;;;9.12;60.01
68656;BME280;55638;51.122;13.606;2023-04-01T02:08:39;98354.88;;;9.12;59.78
68656;BME280;55638;51.122;13.606;2023-04-01T02:10:13;98348.66;;;9.12;60.01
68656;BME280;55638;51.122;13.606;2023-04-01T02:11:48;98354.03;;;9.12;60.07
68656;BME280;55638;51.122;13.606;2023-04-01T02:13:43;98347.97;;;9.10;60.05
68656;BME280;55638;51.122;13.606;2023-04-01T02:15:16;98338.75;;;9.12;60.02
68656;BME280;55638;51.122;13.606;2023-04-01T02:17:07;98338.06;;;9.10;59.79
68656;BME280;55638;51.122;13.606;2023-04-01T02:18:41;98346.66;;;9.14;59.89
68656;BME280;55638;51.122;13.606;2023-04-01T02:20:21;98348.66;;;9.12;59.78
68656;BME280;55638;51.122;13.606;2023-04-01T02:21:59;98350.34;;;9.13;59.86
68656;BME280;55638;51.122;13.606;2023-04-01T02:23:34;98352.88;;;9.14;59.95
68656;BME280;55638;51.122;13.606;2023-04-01T02:25:10;98347.66;;;9.13;59.89
68656;BME280;55638;51.122;13.606;2023-04-01T02:26:44;98365.47;;;9.14;59.87
68656;BME280;55638;51.122;13.606;2023-04-01T02:28:17;98354.88;;;9.12;60.01
68656;BME280;55638;51.122;13.606;2023-04-01T02:29:52;98347.50;;;9.14;59.94
68656;BME280;55638;51.122;13.606;2023-04-01T02:31:25;98352.88;;;9.14;59.92
68656;BME280;55638;51.122;13.606;2023-04-01T02:32:58;98354.72;;;9.14;60.00
68656;BME280;55638;51.122;13.606;2023-04-01T02:34:30;98357.25;;;9.15;60.02
68656;BME280;55638;51.122;13.606;2023-04-01T02:36:03;98350.00;;;9.16;59.91
68656;BME280;55638;51.122;13.606;2023-04-01T02:37:36;98350.00;;;9.16;60.00
68656;BME280;55638;51.122;13.606;2023-04-01T02:39:10;98358.06;;;9.16;59.80
68656;BME280;55638;51.122;13.606;2023-04-01T02:40:57;98361.09;;;9.13;59.66
68656;BME280;55638;51.122;13.606;2023-04-01T02:42:30;98361.59;;;9.16;59.78
68656;BME280;55638;51.122;13.606;2023-04-01T02:44:02;98367.81;;;9.17;59.83
68656;BME280;55638;51.122;13.606;2023-04-01T02:45:34;98368.81;;;9.16;59.80
68656;BME280;55638;51.122;13.606;2023-04-01T02:47:06;98366.97;;;9.16;59.83
68656;BME280;55638;51.122;13.606;2023-04-01T02:48:38;98366.13;;;9.16;59.76
68656;BME280;55638;51.122;13.606;2023-04-01T02:50:10;98364.47;;;9.15;59.75
68656;BME280;55638;51.122;13.606;2023-04-01T02:51:42;98361.94;;;9.13;59.58
68656;BME280;55638;51.122;13.606;2023-04-01T02:53:17;98360.09;;;9.14;59.79
68656;BME280;55638;51.122;13.606;2023-04-01T02:54:49;98366.47;;;9.13;59.73
68656;BME280;55638;51.122;13.606;2023-04-01T02:56:21;98366.47;;;9.13;59.77
68656;BME280;55638;51.122;13.606;2023-04-01T02:57:52;98364.78;;;9.12;59.65
68656;BME280;55638;51.122;13.606;2023-04-01T02:59:24;98378.38;;;9.10;59.65
68656;BME280;55638;51.122;13.606;2023-04-01T03:00:56;98379.25;;;9.11;59.63
68656;BME280;55638;51.122;13.606;2023-04-01T03:02:28;98375.69;;;9.10;59.78
68656;BME280;55638;51.122;13.606;2023-04-01T03:04:00;98374.19;;;9.08;59.80
68656;BME280;55638;51.122;13.606;2023-04-01T03:05:32;98372.50;;;9.07;59.71
68656;BME280;55638;51.122;13.606;2023-04-01T03:07:04;98371.66;;;9.06;59.71
68656;BME280;55638;51.122;13.606;2023-04-01T03:08:36;98375.19;;;9.07;59.77
68656;BME280;55638;51.122;13.606;2023-04-01T03:10:09;98380.41;;;9.08;59.63
68656;BME280;55638;51.122;13.606;2023-04-01T03:11:41;98376.88;;;9.08;59.78
68656;BME280;55638;51.122;13.606;2023-04-01T03:13:12;98377.88;;;9.07;59.78
68656;BME280;55638;51.122;13.606;2023-04-01T03:14:45;98384.09;;;9.07;59.57
68656;BME280;55638;51.122;13.606;2023-04-01T03:16:16;98379.56;;;9.08;59.79
68656;BME280;55638;51.122;13.606;2023-04-01T03:17:48;98382.25;;;9.08;59.73
68656;BME280;55638;51.122;13.606;2023-04-01T03:19:21;98375.19;;;9.07;59.85
68656;BME280;55638;51.122;13.606;2023-04-01T03:20:53;98377.03;;;9.06;59.72
68656;BME280;55638;51.122;13.606;2023-04-01T03:22:24;98377.88;;;9.07;59.72
68656;BME280;55638;51.122;13.606;2023-04-01T03:23:56;98373.34;;;9.07;59.78
68656;BME280;55638;51.122;13.606;2023-04-01T03:25:28;98376.03;;;9.07;59.74
68656;BME280;55638;51.122;13.606;2023-04-01T03:27:02;98385.09;;;9.06;59.77
68656;BME280;55638;51.122;13.606;2023-04-01T03:28:35;98383.25;;;9.07;59.68
68656;BME280;55638;51.122;13.606;2023-04-01T03:30:07;98386.94;;;9.06;59.79
68656;BME280;55638;51.122;13.606;2023-04-01T03:31:45;98380.88;;;9.03;59.56
68656;BME280;55638;51.122;13.606;2023-04-01T03:33:17;98384.44;;;9.04;59.58
68656;BME280;55638;51.122;13.606;2023-04-01T03:34:49;98375.50;;;9.03;59.59
68656;BME280;55638;51.122;13.606;2023-04-01T03:36:20;98381.88;;;9.02;59.81
68656;BME280;55638;51.122;13.606;2023-04-01T03:37:53;98384.56;;;9.02;59.61
68656;BME280;55638;51.122;13.606;2023-04-01T03:39:25;98382.91;;;9.01;59.67
68656;BME280;55638;51.122;13.606;2023-04-01T03:40:59;98388.28;;;9.01;59.63
68656;BME280;55638;51.122;13.606;2023-04-01T03:42:31;98390.97;;;9.01;59.57
68656;BME280;55638;51.122;13.606;2023-04-01T03:44:04;98384.75;;;9.01;59.75
68656;BME280;55638;51.122;13.606;2023-04-01T03:45:43;98391.09;;;9.00;59.46
68656;BME280;55638;51.122;13.606;2023-04-01T03:47:17;98383.88;;;9.00;59.63
68656;BME280;55638;51.122;13.606;2023-04-01T03:48:49;98383.38;;;8.97;59.63
68656;BME280;55638;51.122;13.606;2023-04-01T03:50:20;98384.25;;;8.97;59.62
68656;BME280;55638;51.122;13.606;2023-04-01T03:51:52;98388.59;;;8.98;59.64
68656;BME280;55638;51.122;13.606;2023-04-01T03:53:24;98391.28;;;8.98;59.70
68656;BME280;55638;51.122;13.606;2023-04-01T03:54:59;98390.28;;;8.99;59.65
68656;BME280;55638;51.122;13.606;2023-04-01T03:56:31;98390.28;;;8.99;59.72
68656;BME280;55638;51.122;13.606;2023-04-01T03:58:05;98391.09;;;9.00;59.70
68656;BME280;55638;51.122;13.606;2023-04-01T03:59:37;98392.81;;;9.01;59.63
68656;BME280;55638;51.122;13.606;2023-04-01T04:01:14;98395.50;;;9.01;59.55
68656;BME280;55638;51.122;13.606;2023-04-01T04:02:46;98389.94;;;9.02;59.66
68656;BME280;55638;51.122;13.606;2023-04-01T04:04:24;98395.50;;;9.01;59.60
68656;BME280;55638;51.122;13.606;2023-04-01T04:05:56;98390.97;;;9.01;59.57
68656;BME280;55638;51.122;13.606;2023-04-01T04:07:28;98395.31;;;9.02;59.58
68656;BME280;55638;51.122;13.606;2023-04-01T04:09:07;98408.75;;;9.02;59.58
68656;BME280;55638;51.122;13.606;2023-04-01T04:10:38;98397.19;;;9.02;59.55
68656;BME280;55638;51.122;13.606;2023-04-01T04:12:11;98400.69;;;9.02;59.65
68656;BME280;55638;51.122;13.606;2023-04-01T04:13:43;98400.69;;;9.02;59.46
68656;BME280;55638;51.122;13.606;2023-04-01T04:15:15;98401.53;;;9.03;59.44
68656;BME280;55638;51.122;13.606;2023-04-01T04:16:47;98392.63;;;9.02;59.56
68656;BME280;55638;51.122;13.606;2023-04-01T04:18:19;98404.41;;;9.01;59.47
68656;BME280;55638;51.122;13.606;2023-04-01T04:19:51;98403.38;;;9.02;59.39
68656;BME280;55638;51.122;13.606;2023-04-01T04:21:24;98408.63;;;9.04;59.44
68656;BME280;55638;51.122;13.606;2023-04-01T04:22:56;98407.75;;;9.03;59.44
68656;BME280;55638;51.122;13.606;2023-04-01T04:24:28;98412.28;;;9.03;59.55
68656;BME280;55638;51.122;13.606;2023-04-01T04:26:08;98414.97;;;9.03;59.27
68656;BME280;55638;51.122;13.606;2023-04-01T04:27:40;98408.63;;;9.04;59.44
68656;BME280;55638;51.122;13.606;2023-04-01T04:29:14;98415.81;;;9.03;59.43
68656;BME280;55638;51.122;13.606;2023-04-01T04:30:46;98411.31;;;9.04;59.41
68656;BME280;55638;51.122;13.606;2023-04-01T04:32:18;98417.50;;;9.05;59.46
68656;BME280;55638;51.122;13.606;2023-04-01T04:33:50;98419.19;;;9.06;59.44
68656;BME280;55638;51.122;13.606;2023-04-01T04:35:23;98412.13;;;9.05;59.25
68656;BME280;55638;51.122;13.606;2023-04-01T04:36:54;98421.88;;;9.06;59.29
68656;BME280;55638;51.122;13.606;2023-04-01T04:38:30;98424.56;;;9.06;59.26
68656;BME280;55638;51.122;13.606;2023-04-01T04:40:03;98415.50;;;9.07;59.24
68656;BME280;55638;51.122;13.606;2023-04-01T04:41:38;98420.03;;;9.06;59.20
68656;BME280;55638;51.122;13.606;2023-04-01T04:43:12;98423.56;;;9.07;59.36
68656;BME280;55638;51.122;13.606;2023-04-01T04:44:44;98429.78;;;9.07;59.47
68656;BME280;55638;51.122;13.606;2023-04-01T04:46:16;98422.41;;;9.09;59.33
68656;BME280;55638;51.122;13.606;2023-04-01T04:47:48;98429.63;;;9.09;59.39
68656;BME280;55638;51.122;13.606;2023-04-01T04:49:20;98427.78;;;9.09;59.22
68656;BME280;55638;51.122;13.606;2023-04-01T04:50:52;98431.28;;;9.10;59.38
68656;BME280;55638;51.122;13.606;2023-04-01T04:52:27;98434.69;;;9.12;59.20
68656;BME280;55638;51.122;13.606;2023-04-01T04:54:00;98434.69;;;9.12;59.29
68656;BME280;55638;51.122;13.606;2023-04-01T04:55:49;98436.34;;;9.13;58.97
68656;BME280;55638;51.122;13.606;2023-04-01T04:57:31;98439.03;;;9.13;59.26
68656;BME280;55638;51.122;13.606;2023-04-01T04:59:03;98436.34;;;9.13;59.16
68656;BME280;55638;51.122;13.606;2023-04-01T05:00:45;98434.34;;;9.15;59.04
68656;BME280;55638;51.122;13.606;2023-04-01T05:02:24;98438.72;;;9.16;59.03
68656;BME280;55638;51.122;13.606;2023-04-01T05:03:57;98434.34;;;9.15;59.04
68656;BME280;55638;51.122;13.606;2023-04-01T05:05:28;98437.88;;;9.15;59.10
68656;BME280;55638;51.122;13.606;2023-04-01T05:07:01;98444.09;;;9.16;59.20
68656;BME280;55638;51.122;13.606;2023-04-01T05:08:34;98441.41;;;9.16;59.16
68656;BME280;55638;51.122;13.606;2023-04-01T05:10:06;98442.25;;;9.16;59.12
68656;BME280;55638;51.122;13.606;2023-04-01T05:11:39;98443.94;;;9.17;59.19
68656;BME280;55638;51.122;13.606;2023-04-01T05:13:11;98446.44;;;9.19;59.25
68656;BME280;55638;51.122;13.606;2023-04-01T05:14:44;98450.81;;;9.20;59.23
68656;BME280;55638;51.122;13.606;2023-04-01T05:16:18;98453.50;;;9.20;59.18
68656;BME280;55638;51.122;13.606;2023-04-01T05:17:51;98451.69;;;9.20;59.25
68656;BME280;55638;51.122;13.606;2023-04-01T05:19:23;98457.91;;;9.21;59.13
68656;BME280;55638;51.122;13.606;2023-04-01T05:20:55;98459.44;;;9.23;59.29
68656;BME280;55638;51.122;13.606;2023-04-01T05:22:27;98451.38;;;9.23;59.10
68656;BME280;55638;51.122;13.606;2023-04-01T05:23:58;98456.56;;;9.25;59.01
68656;BME280;55638;51.122;13.606;2023-04-01T05:25:31;98457.41;;;9.25;59.15
68656;BME280;55638;51.122;13.606;2023-04-01T05:27:03;98459.06;;;9.26;59.17
68656;BME280;55638;51.122;13.606;2023-04-01T05:28:39;98461.63;;;9.28;59.13
68656;BME280;55638;51.122;13.606;2023-04-01T05:30:12;98459.63;;;9.30;59.25
68656;BME280;55638;51.122;13.606;2023-04-01T05:31:59;98463.97;;;9.31;59.17
68656;BME280;55638;51.122;13.606;2023-04-01T05:33:32;98457.59;;;9.32;59.15
68656;BME280;55638;51.122;13.606;2023-04-01T05:35:04;98455.59;;;9.34;59.22
68656;BME280;55638;51.122;13.606;2023-04-01T05:36:36;98459.97;;;9.35;59.32
68656;BME280;55638;51.122;13.606;2023-04-01T05:38:08;98459.81;;;9.37;59.30
68656;BME280;55638;51.122;13.606;2023-04-01T05:39:40;98462.31;;;9.38;59.22
68656;BME280;55638;51.122;13.606;2023-04-01T05:41:13;98466.38;;;9.42;59.26
68656;BME280;55638;51.122;13.606;2023-04-01T05:42:48;98465.38;;;9.43;59.34
68656;BME280;55638;51.122;13.606;2023-04-01T05:44:21;98453.59;;;9.44;59.17
68656;BME280;55638;51.122;13.606;2023-04-01T05:45:53;98465.91;;;9.47;59.31
68656;BME280;55638;51.122;13.606;2023-04-01T05:47:41;98465.41;;;9.52;59.24
68656;BME280;55638;51.122;13.606;2023-04-01T05:49:14;98466.13;;;9.54;59.26
68656;BME280;55638;51.122;13.606;2023-04-01T05:50:46;98459.72;;;9.55;59.30
68656;BME280;55638;51.122;13.606;2023-04-01T05:52:18;98462.09;;;9.58;59.29
68656;BME280;55638;51.122;13.606;2023-04-01T05:53:50;98462.78;;;9.60;59.26
68656;BME280;55638;51.122;13.606;2023-04-01T05:55:23;98467.81;;;9.63;59.21
68656;BME280;55638;51.122;13.606;2023-04-01T05:56:55;98464.13;;;9.64;59.17
68656;BME280;55638;51.122;13.606;2023-04-01T05:58:27;98459.25;;;9.67;59.22
68656;BME280;55638;51.122;13.606;2023-04-01T05:59:59;98460.09;;;9.68;59.09
68656;BME280;55638;51.122;13.606;2023-04-01T06:01:31;98465.13;;;9.71;59.21
68656;BME280;55638;51.122;13.606;2023-04-01T06:03:03;98469.16;;;9.75;59.00
68656;BME280;55638;51.122;13.606;2023-04-01T06:04:38;98471.72;;;9.77;58.99
68656;BME280;55638;51.122;13.606;2023-04-01T06:06:15;98470.56;;;9.79;58.94
68656;BME280;55638;51.122;13.606;2023-04-01T06:07:48;98471.91;;;9.83;59.17
68656;BME280;55638;51.122;13.606;2023-04-01T06:09:27;98468.88;;;9.86;58.88
68656;BME280;55638;51.122;13.606;2023-04-01T06:12:53;98471.91;;;9.91;58.91
68656;BME280;55638;51.122;13.606;2023-04-01T06:14:53;98471.56;;;9.94;58.56
68656;BME280;55638;51.122;13.606;2023-04-01T06:16:36;98478.97;;;10.01;58.56
68656;BME280;55638;51.122;13.606;2023-04-01T06:18:52;98479.81;;;10.01;58.97
68656;BME280;55638;51.122;13.606;2023-04-01T06:20:41;98476.63;;;10.06;58.72
68656;BME280;55638;51.122;13.606;2023-04-01T06:22:39;98474.59;;;10.08;58.54
68656;BME280;55638;51.122;13.606;2023-04-01T06:26:13;98478.66;;;10.12;58.52
68656;BME280;55638;51.122;13.606;2023-04-01T06:28:01;98486.06;;;10.18;58.83
68656;BME280;55638;51.122;13.606;2023-04-01T06:31:45;98482.38;;;10.19;58.39
68656;BME280;55638;51.122;13.606;2023-04-01T06:36:50;98480.19;;;10.31;58.46
68656;BME280;55638;51.122;13.606;2023-04-01T06:40:18;98482.38;;;10.35;58.21
68656;BME280;55638;51.122;13.606;2023-04-01T06:42:08;98479.34;;;10.38;58.03
68656;BME280;55638;51.122;13.606;2023-04-01T06:45:37;98485.41;;;10.49;58.52
68656;BME280;55638;51.122;13.606;2023-04-01T06:49:55;98487.56;;;10.61;57.77
68656;BME280;55638;51.122;13.606;2023-04-01T06:54:11;98483.22;;;10.77;58.13
68656;BME280;55638;51.122;13.606;2023-04-01T06:56:11;98488.75;;;10.83;57.68
68656;BME280;55638;51.122;13.606;2023-04-01T06:58:13;98483.69;;;10.88;58.05
68656;BME280;55638;51.122;13.606;2023-04-01T06:59:48;98483.00;;;10.95;58.27
68656;BME280;55638;51.122;13.606;2023-04-01T07:01:33;98478.28;;;10.97;57.57
68656;BME280;55638;51.122;13.606;2023-04-01T07:03:34;98483.97;;;11.02;57.32
68656;BME280;55638;51.122;13.606;2023-04-01T07:05:11;98483.63;;;11.13;58.13
68656;BME280;55638;51.122;13.606;2023-04-01T07:06:53;98484.13;;;11.17;57.85
68656;BME280;55638;51.122;13.606;2023-04-01T07:08:28;98492.53;;;11.22;57.54
68656;BME280;55638;51.122;13.606;2023-04-01T07:10:05;98494.50;;;11.28;57.26
68656;BME280;55638;51.122;13.606;2023-04-01T07:12:37;98486.94;;;11.31;56.44
68656;BME280;55638;51.122;13.606;2023-04-01T07:14:42;98493.59;;;11.44;57.08
68656;BME280;55638;51.122;13.606;2023-04-01T07:16:24;98493.25;;;11.47;57.00
68656;BME280;55638;51.122;13.606;2023-04-01T07:18:03;98501.69;;;11.52;56.88
68656;BME280;55638;51.122;13.606;2023-04-01T07:19:58;98495.94;;;11.55;56.37
68656;BME280;55638;51.122;13.606;2023-04-01T07:21:55;98504.53;;;11.58;55.69
68656;BME280;55638;51.122;13.606;2023-04-01T07:23:41;98503.81;;;11.65;55.79
68656;BME280;55638;51.122;13.606;2023-04-01T07:25:41;98506.31;;;11.66;55.93
68656;BME280;55638;51.122;13.606;2023-04-01T07:27:33;98503.97;;;11.71;56.50
68656;BME280;55638;51.122;13.606;2023-04-01T07:29:09;98509.00;;;11.74;56.54
68656;BME280;55638;51.122;13.606;2023-04-01T07:34:19;98504.41;;;11.83;56.27
68656;BME280;55638;51.122;13.606;2023-04-01T07:36:10;98516.72;;;11.86;55.67
68656;BME280;55638;51.122;13.606;2023-04-01T07:39:30;98513.97;;;11.94;55.52
68656;BME280;55638;51.122;13.606;2023-04-01T07:43:32;98517.16;;;11.97;55.08
68656;BME280;55638;51.122;13.606;2023-04-01T07:45:32;98524.72;;;12.02;55.09
68656;BME280;55638;51.122;13.606;2023-04-01T07:47:17;98519.81;;;12.05;55.05
68656;BME280;55638;51.122;13.606;2023-04-01T07:49:06;98518.59;;;12.08;55.18
68656;BME280;55638;51.122;13.606;2023-04-01T07:51:21;98522.81;;;12.11;55.47
68656;BME280;55638;51.122;13.606;2023-04-01T07:53:08;98518.38;;;12.18;55.00
68656;BME280;55638;51.122;13.606;2023-04-01T07:54:57;98531.38;;;12.22;54.84
68656;BME280;55638;51.122;13.606;2023-04-01T08:00:25;98533.63;;;12.34;53.85
68656;BME280;55638;51.122;13.606;2023-04-01T08:04:17;98537.13;;;12.42;54.66
68656;BME280;55638;51.122;13.606;2023-04-01T08:12:17;98547.81;;;12.59;54.00
68656;BME280;55638;51.122;13.606;2023-04-01T08:14:16;98546.41;;;12.63;54.10
68656;BME280;55638;51.122;13.606;2023-04-01T08:16:22;98547.56;;;12.68;54.60
68656;BME280;55638;51.122;13.606;2023-04-01T08:18:04;98549.69;;;12.73;54.00
68656;BME280;55638;51.122;13.606;2023-04-01T08:19:49;98554.22;;;12.81;54.37
68656;BME280;55638;51.122;13.606;2023-04-01T08:21:28;98564.31;;;12.87;54.25
68656;BME280;55638;51.122;13.606;2023-04-01T08:23:12;98544.84;;;12.91;54.44
68656;BME280;55638;51.122;13.606;2023-04-01T08:24:48;98552.03;;;12.99;54.29
68656;BME280;55638;51.122;13.606;2023-04-01T08:26:37;98544.84;;;13.06;52.92
68656;BME280;55638;51.122;13.606;2023-04-01T08:29:02;98552.06;;;13.14;53.17
68656;BME280;55638;51.122;13.606;2023-04-01T08:30:39;98544.50;;;13.24;53.51
68656;BME280;55638;51.122;13.606;2023-04-01T08:32:35;98548.34;;;13.30;52.83
68656;BME280;55638;51.122;13.606;2023-04-01T08:34:20;98544.50;;;13.39;52.72
68656;BME280;55638;51.122;13.606;2023-04-01T08:36:02;98550.69;;;13.48;53.21
68656;BME280;55638;51.122;13.606;2023-04-01T08:37:37;98546.38;;;13.53;53.27
68656;BME280;55638;51.122;13.606;2023-04-01T08:39:44;98545.63;;;13.59;53.37
68656;BME280;55638;51.122;13.606;2023-04-01T08:43:51;98543.38;;;13.78;52.95
68656;BME280;55638;51.122;13.606;2023-04-01T08:47:46;98547.69;;;13.87;51.67
68656;BME280;55638;51.122;13.606;2023-04-01T08:51:57;98552.25;;;14.01;51.98
68656;BME280;55638;51.122;13.606;2023-04-01T08:55:31;98551.34;;;14.15;52.59
68656;BME280;55638;51.122;13.606;2023-04-01T08:57:35;98541.63;;;14.21;52.49
68656;BME280;55638;51.122;13.606;2023-04-01T09:06:38;98539.22;;;14.33;51.37
68656;BME280;55638;51.122;13.606;2023-04-01T09:10:24;98554.94;;;14.37;52.03
68656;BME280;55638;51.122;13.606;2023-04-01T09:17:17;98546.22;;;14.42;50.84
68656;BME280;55638;51.122;13.606;2023-04-01T09:21:09;98545.81;;;14.45;49.96
68656;BME280;55638;51.122;13.606;2023-04-01T09:23:09;98538.28;;;14.41;47.02
68656;BME280;55638;51.122;13.606;2023-04-01T09:24:52;98559.75;;;14.42;49.87
68656;BME280;55638;51.122;13.606;2023-04-01T09:26:44;98547.81;;;14.36;49.66
68656;BME280;55638;51.122;13.606;2023-04-01T09:30:17;98548.69;;;14.37;50.88
68656;BME280;55638;51.122;13.606;2023-04-01T09:34:14;98544.94;;;14.38;50.61
68656;BME280;55638;51.122;13.606;2023-04-01T09:36:24;98552.84;;;14.39;50.21
68656;BME280;55638;51.122;13.606;2023-04-01T09:40:14;98552.84;;;14.39;49.51
68656;BME280;55638;51.122;13.606;2023-04-01T09:42:29;98557.88;;;14.43;49.44
68656;BME280;55638;51.122;13.606;2023-04-01T09:46:14;98561.81;;;14.40;48.69
68656;BME280;55638;51.122;13.606;2023-04-01T09:49:45;98566.59;;;14.38;49.34
68656;BME280;55638;51.122;13.606;2023-04-01T10:05:00;98566.16;;;14.34;49.76
68656;BME280;55638;51.122;13.606;2023-04-01T10:07:12;98563.63;;;14.33;49.35
68656;BME280;55638;51.122;13.606;2023-04-01T10:20:48;98564.63;;;14.47;49.31
68656;BME280;55638;51.122;13.606;2023-04-01T10:32:59;98577.56;;;14.30;48.84
68656;BME280;55638;51.122;13.606;2023-04-01T10:35:14;98578.97;;;14.26;48.50
68656;BME280;55638;51.122;13.606;2023-04-01T10:36:55;98583.28;;;14.20;48.25
68656;BME280;55638;51.122;13.606;2023-04-01T10:40:28;98576.63;;;14.01;48.60
68656;BME280;55638;51.122;13.606;2023-04-01T10:46:54;98577.59;;;13.79;49.50
68656;BME280;55638;51.122;13.606;2023-04-01T10:50:29;98581.09;;;13.64;49.07
68656;BME280;55638;51.122;13.606;2023-04-01T10:54:36;98583.91;;;13.56;49.71